Time;durP1;ratioP1;P1;durP2;ratioP2;P2;SDS_P1;SDS_P2;PMS_P1;PMS_P2;Temp;Humidity;BMP_temperature;BMP_pressure;BME280_temperature;BME280_humidity;BME280_pressure;Samples;Min_cycle;Max_cycle;Signal;HPM_P1;HPM_P2
2022/05/20 00:00:10;;;;;;;2.20;2.00;;;18.40;99.90;;;;;;5051006;28;20442;-44
2022/05/20 00:02:47;;;;;;;3.93;1.90;;;18.50;99.90;;;;;;5052060;28;20534;-51
2022/05/20 00:05:14;;;;;;;2.37;1.80;;;18.50;99.90;;;;;;5051592;28;20609;-44
2022/05/20 00:07:41;;;;;;;2.43;1.87;;;18.60;99.90;;;;;;5051336;28;20509;-44
2022/05/20 00:10:09;;;;;;;2.83;2.60;;;18.60;99.90;;;;;;5051171;28;20445;-44
2022/05/20 00:12:37;;;;;;;2.30;2.10;;;18.70;99.90;;;;;;5051283;28;21008;-45
2022/05/20 00:15:08;;;;;;;2.37;1.93;;;18.70;99.90;;;;;;5051365;28;20922;-43
2022/05/20 00:17:35;;;;;;;2.10;1.80;;;18.70;99.90;;;;;;5050570;28;20571;-48
2022/05/20 00:20:03;;;;;;;2.90;2.00;;;18.60;99.90;;;;;;5051052;28;20445;-44
2022/05/20 00:22:30;;;;;;;2.40;1.70;;;18.60;99.90;;;;;;5051215;28;20495;-44
2022/05/20 00:27:41;;;;;;;2.10;1.80;;;18.60;99.90;;;;;;5051359;28;20472;-44
2022/05/20 00:30:11;;;;;;;2.20;1.90;;;18.60;99.90;;;;;;5051205;28;20773;-43
2022/05/20 00:32:38;;;;;;;2.03;1.83;;;18.70;99.90;;;;;;5051187;28;20468;-44
2022/05/20 00:35:06;;;;;;;3.10;1.50;;;18.60;99.90;;;;;;5051111;28;20441;-45
2022/05/20 00:37:33;;;;;;;4.23;2.03;;;18.60;99.90;;;;;;5050839;28;20468;-45
2022/05/20 00:40:00;;;;;;;2.00;1.90;;;18.70;99.90;;;;;;5051014;28;20949;-44
2022/05/20 00:42:27;;;;;;;3.03;1.90;;;18.70;99.90;;;;;;5050894;28;20524;-47
2022/05/20 00:44:54;;;;;;;3.27;2.10;;;18.70;99.90;;;;;;5050973;28;20972;-44
2022/05/20 00:47:22;;;;;;;2.10;1.80;;;18.80;99.90;;;;;;5050951;28;20564;-48
2022/05/20 00:49:54;;;;;;;2.03;1.63;;;18.80;99.90;;;;;;5051160;28;20934;-48
2022/05/20 00:52:23;;;;;;;3.77;2.30;;;18.80;99.90;;;;;;5050669;28;20533;-44
2022/05/20 00:54:54;;;;;;;1.90;1.70;;;18.80;99.90;;;;;;5050885;28;20442;-44
2022/05/20 00:57:25;;;;;;;2.87;1.80;;;18.80;99.90;;;;;;5050974;28;20433;-44
2022/05/20 00:59:55;;;;;;;2.43;1.83;;;18.70;99.90;;;;;;5050702;28;20828;-47
2022/05/20 01:02:25;;;;;;;1.90;1.50;;;18.70;99.90;;;;;;5050272;28;20469;-43
2022/05/20 01:04:56;;;;;;;3.97;2.07;;;18.60;99.90;;;;;;5050619;28;20817;-44
2022/05/20 01:07:24;;;;;;;1.73;1.53;;;18.50;99.90;;;;;;5051043;28;20476;-44
2022/05/20 01:09:51;;;;;;;3.47;2.40;;;18.30;99.90;;;;;;5050462;28;20481;-44
2022/05/20 01:12:18;;;;;;;2.20;1.87;;;18.30;99.90;;;;;;5050787;28;20520;-44
2022/05/20 01:14:45;;;;;;;4.20;1.83;;;18.30;99.90;;;;;;5050850;28;20499;-44
2022/05/20 01:17:12;;;;;;;2.00;1.80;;;18.10;99.90;;;;;;5050828;28;20495;-43
2022/05/20 01:19:46;;;;;;;2.10;1.73;;;18.20;99.90;;;;;;5050634;28;20491;-45
2022/05/20 01:22:25;;;;;;;2.27;2.07;;;18.30;99.90;;;;;;5050475;28;21154;-46
2022/05/20 01:24:53;;;;;;;5.00;2.00;;;18.40;99.90;;;;;;5051196;28;20467;-44
2022/05/20 01:27:20;;;;;;;3.10;1.90;;;18.40;99.90;;;;;;5050479;28;20513;-44
2022/05/20 01:29:47;;;;;;;2.40;1.97;;;18.40;99.90;;;;;;5052739;28;20492;-44
2022/05/20 01:32:14;;;;;;;3.30;1.90;;;18.40;99.90;;;;;;5054385;28;20437;-45
2022/05/20 01:34:41;;;;;;;2.13;1.93;;;18.40;99.90;;;;;;5054291;28;20480;-44
2022/05/20 01:37:08;;;;;;;2.73;2.30;;;18.30;99.90;;;;;;5054244;28;20567;-47
2022/05/20 01:39:35;;;;;;;1.93;1.57;;;18.30;99.90;;;;;;5053822;28;20987;-46
2022/05/20 01:42:07;;;;;;;2.70;2.10;;;18.40;99.90;;;;;;5054195;28;20476;-44
2022/05/20 01:44:38;;;;;;;2.30;1.90;;;18.40;99.90;;;;;;5054385;28;20526;-44
2022/05/20 01:47:12;;;;;;;2.83;1.90;;;18.40;99.90;;;;;;5054220;28;20516;-45
2022/05/20 01:49:44;;;;;;;2.70;2.07;;;18.50;99.90;;;;;;5054000;28;20602;-43
2022/05/20 01:52:23;;;;;;;3.13;1.80;;;18.50;99.90;;;;;;5054004;28;20491;-46
2022/05/20 01:54:58;;;;;;;3.10;1.90;;;18.40;99.90;;;;;;5054145;28;20453;-45
2022/05/20 01:57:31;;;;;;;2.03;1.63;;;18.40;99.90;;;;;;5054161;28;20451;-43
2022/05/20 02:00:05;;;;;;;5.60;1.63;;;18.40;99.90;;;;;;5053677;28;20978;-44
2022/05/20 02:02:38;;;;;;;1.50;1.40;;;18.30;99.90;;;;;;5053600;28;20531;-45
2022/05/20 02:05:10;;;;;;;1.90;1.50;;;18.30;99.90;;;;;;5054039;28;20441;-44
2022/05/20 02:07:42;;;;;;;4.00;1.70;;;18.30;99.90;;;;;;5053765;28;20473;-44
2022/05/20 02:10:16;;;;;;;4.13;2.23;;;18.30;99.90;;;;;;5053414;28;20445;-44
2022/05/20 02:12:50;;;;;;;3.03;1.80;;;18.30;99.90;;;;;;5053370;28;20511;-45
2022/05/20 02:15:22;;;;;;;2.40;1.80;;;18.30;99.90;;;;;;5053847;28;20445;-45
2022/05/20 02:17:55;;;;;;;4.53;1.87;;;18.20;99.90;;;;;;5053584;28;20469;-45
2022/05/20 02:20:28;;;;;;;2.50;2.03;;;18.10;99.90;;;;;;5053350;28;20998;-44
2022/05/20 02:22:59;;;;;;;2.07;1.80;;;18.00;99.90;;;;;;5053245;28;20468;-48
2022/05/20 02:25:29;;;;;;;2.60;1.53;;;18.00;99.90;;;;;;5053308;28;20872;-43
2022/05/20 02:28:00;;;;;;;2.30;1.23;;;18.00;99.90;;;;;;5053689;28;20485;-45
2022/05/20 02:30:31;;;;;;;2.40;1.60;;;18.00;99.90;;;;;;5053067;28;20893;-44
2022/05/20 02:33:04;;;;;;;2.00;1.70;;;18.00;99.90;;;;;;5053025;28;21070;-44
2022/05/20 02:35:31;;;;;;;3.03;1.70;;;18.00;99.90;;;;;;5053151;28;20477;-44
2022/05/20 02:38:06;;;;;;;2.03;1.83;;;18.00;99.90;;;;;;5053214;28;20499;-47
2022/05/20 02:40:33;;;;;;;2.17;1.70;;;18.00;99.90;;;;;;5051843;28;20451;-44
2022/05/20 02:43:01;;;;;;;2.53;2.07;;;18.00;99.90;;;;;;5053159;28;20504;-45
2022/05/20 02:45:29;;;;;;;2.70;1.87;;;18.00;99.90;;;;;;5053015;28;20477;-48
2022/05/20 02:47:56;;;;;;;1.83;1.73;;;17.90;99.90;;;;;;5052795;28;20564;-44
2022/05/20 02:50:23;;;;;;;5.23;1.63;;;18.00;99.90;;;;;;5052994;28;20473;-48
2022/05/20 02:52:50;;;;;;;3.20;2.70;;;18.00;99.90;;;;;;5052744;28;20457;-44
2022/05/20 02:55:17;;;;;;;2.60;1.97;;;18.00;99.90;;;;;;5052708;28;20938;-44
2022/05/20 02:57:45;;;;;;;2.33;1.97;;;17.90;99.90;;;;;;5052718;28;20446;-44
2022/05/20 03:05:50;;;;;;;2.33;2.00;;;17.40;99.90;;;;;;5051455;28;20425;-42
2022/05/20 03:08:18;;;;;;;2.10;1.90;;;17.50;99.90;;;;;;5052688;28;20465;-42
2022/05/20 03:10:45;;;;;;;3.43;2.30;;;17.40;99.90;;;;;;5052190;28;20441;-44
2022/05/20 03:13:12;;;;;;;3.33;2.30;;;16.70;99.90;;;;;;5052561;28;20497;-47
2022/05/20 03:15:42;;;;;;;2.43;1.80;;;16.40;99.90;;;;;;5052573;28;20449;-44
2022/05/20 03:18:10;;;;;;;2.30;2.10;;;16.50;99.90;;;;;;5052235;28;20922;-45
2022/05/20 03:20:38;;;;;;;6.83;2.33;;;16.60;99.90;;;;;;5052146;28;20514;-45
2022/05/20 03:23:06;;;;;;;2.90;2.50;;;16.70;99.90;;;;;;5051782;28;20469;-43
2022/05/20 03:25:33;;;;;;;2.50;1.93;;;16.30;99.90;;;;;;5052415;28;20442;-43
2022/05/20 03:28:01;;;;;;;3.77;2.03;;;16.10;99.90;;;;;;5052118;28;20481;-42
2022/05/20 03:30:28;;;;;;;2.13;1.93;;;16.10;99.90;;;;;;5051715;28;20492;-46
2022/05/20 03:32:56;;;;;;;2.30;2.00;;;16.30;99.90;;;;;;5051994;28;20489;-43
2022/05/20 03:35:23;;;;;;;2.80;1.70;;;16.50;99.90;;;;;;5051985;28;20473;-42
2022/05/20 03:37:50;;;;;;;3.27;2.10;;;16.70;99.90;;;;;;5051838;28;20480;-44
2022/05/20 03:40:17;;;;;;;2.40;1.97;;;17.00;99.90;;;;;;5051988;28;20445;-42
2022/05/20 03:42:44;;;;;;;3.37;2.23;;;17.10;99.90;;;;;;5051904;28;20502;-42
2022/05/20 03:45:11;;;;;;;2.20;2.00;;;17.20;99.90;;;;;;5052069;28;20446;-46
2022/05/20 03:47:38;;;;;;;3.87;1.83;;;17.20;99.90;;;;;;5051554;28;21281;-46
2022/05/20 03:50:08;;;;;;;2.37;1.70;;;17.20;99.90;;;;;;5051612;28;20465;-42
2022/05/20 03:52:35;;;;;;;3.27;2.33;;;17.30;99.90;;;;;;5051553;28;20501;-47
2022/05/20 03:55:02;;;;;;;2.27;1.70;;;17.30;99.90;;;;;;5051919;28;20442;-42
2022/05/20 03:57:30;;;;;;;2.30;1.50;;;17.40;99.90;;;;;;5051737;28;20448;-43
2022/05/20 03:59:56;;;;;;;3.90;2.17;;;17.40;99.90;;;;;;5051277;28;20499;-42
2022/05/20 04:02:23;;;;;;;2.30;1.60;;;17.40;99.90;;;;;;5050763;28;20507;-44
2022/05/20 04:04:52;;;;;;;1.63;1.53;;;17.40;99.90;;;;;;5051831;28;20465;-43
2022/05/20 04:07:23;;;;;;;1.73;1.63;;;17.40;99.90;;;;;;5051363;28;21067;-41
2022/05/20 04:09:50;;;;;;;1.90;1.43;;;17.50;99.90;;;;;;5051315;28;20529;-46
2022/05/20 04:12:25;;;;;;;2.07;1.87;;;17.50;99.90;;;;;;5051366;28;20495;-42
2022/05/20 04:14:52;;;;;;;2.50;1.97;;;17.50;99.90;;;;;;5051373;28;20929;-47
2022/05/20 04:17:19;;;;;;;1.63;1.53;;;17.50;99.90;;;;;;5051653;28;20477;-42
2022/05/20 04:19:46;;;;;;;2.20;1.60;;;17.50;99.90;;;;;;5050792;28;20946;-46
2022/05/20 04:22:16;;;;;;;2.17;1.90;;;17.50;99.90;;;;;;5051240;28;20533;-43
2022/05/20 04:24:44;;;;;;;4.37;2.30;;;17.50;99.90;;;;;;5051397;28;20498;-42
2022/05/20 04:27:11;;;;;;;2.70;1.90;;;17.50;99.90;;;;;;5051149;28;20499;-47
2022/05/20 04:29:38;;;;;;;2.43;1.67;;;17.50;99.90;;;;;;5050871;28;20445;-42
2022/05/20 04:32:06;;;;;;;2.80;2.00;;;17.50;99.90;;;;;;5051260;28;20480;-48
2022/05/20 04:34:33;;;;;;;1.63;1.53;;;17.50;99.90;;;;;;5051054;28;20465;-42
2022/05/20 04:37:00;;;;;;;1.93;1.70;;;17.40;99.90;;;;;;5051324;28;20445;-42
2022/05/20 04:39:27;;;;;;;1.97;1.77;;;17.40;99.90;;;;;;5050995;28;20445;-42
2022/05/20 04:47:28;;;;;;;2.00;1.40;;;17.50;99.90;;;;;;5051024;28;20442;-46
2022/05/20 04:49:56;;;;;;;2.40;1.70;;;17.20;99.90;;;;;;5051059;28;20528;-42
2022/05/20 04:52:23;;;;;;;2.10;1.60;;;17.10;99.90;;;;;;5050781;28;20469;-43
2022/05/20 04:54:50;;;;;;;2.10;1.90;;;16.90;99.90;;;;;;5051358;28;20477;-47
2022/05/20 04:57:28;;;;;;;2.60;1.87;;;17.00;99.90;;;;;;5051268;28;20441;-44
2022/05/20 04:59:59;;;;;;;2.63;2.10;;;17.00;99.90;;;;;;5050661;28;20445;-46
2022/05/20 05:02:26;;;;;;;2.00;1.80;;;17.00;99.90;;;;;;5050136;28;20821;-42
2022/05/20 05:04:53;;;;;;;2.23;1.70;;;17.10;99.90;;;;;;5053369;28;20552;-43
2022/05/20 05:07:20;;;;;;;1.93;1.40;;;17.10;99.90;;;;;;5055127;28;20473;-43
2022/05/20 05:09:47;;;;;;;3.43;1.93;;;17.20;99.90;;;;;;5054829;28;20499;-42
2022/05/20 05:12:15;;;;;;;2.50;1.90;;;17.20;99.90;;;;;;5054624;28;21016;-42
2022/05/20 05:14:46;;;;;;;2.23;2.00;;;17.30;99.90;;;;;;5054781;28;20449;-43
2022/05/20 05:17:16;;;;;;;3.40;1.70;;;17.30;99.90;;;;;;5054773;28;20441;-42
2022/05/20 05:19:45;;;;;;;2.37;2.10;;;17.40;99.90;;;;;;5054525;28;21000;-43
2022/05/20 05:22:13;;;;;;;3.60;2.70;;;17.50;99.90;;;;;;5054534;28;20441;-42
2022/05/20 05:24:40;;;;;;;3.57;2.53;;;17.50;99.90;;;;;;5054646;28;20547;-42
2022/05/20 05:27:07;;;;;;;3.00;2.13;;;17.50;99.90;;;;;;5054639;28;20468;-43
2022/05/20 05:29:38;;;;;;;3.00;1.90;;;17.50;99.90;;;;;;5054150;28;20499;-42
2022/05/20 05:32:08;;;;;;;6.80;2.30;;;17.50;99.90;;;;;;5054701;28;20587;-42
2022/05/20 05:34:35;;;;;;;4.60;2.50;;;17.50;99.90;;;;;;5054304;28;20461;-43
2022/05/20 05:37:03;;;;;;;2.27;1.97;;;17.60;99.90;;;;;;5054499;28;20480;-42
2022/05/20 05:39:30;;;;;;;4.10;2.30;;;17.60;99.90;;;;;;5054218;28;20461;-45
2022/05/20 05:41:59;;;;;;;2.10;1.57;;;17.60;99.90;;;;;;5054690;28;20472;-41
2022/05/20 05:44:26;;;;;;;2.70;2.10;;;17.50;99.90;;;;;;5054393;28;20465;-42
2022/05/20 05:46:53;;;;;;;5.50;2.57;;;17.50;99.90;;;;;;5054201;28;20483;-42
2022/05/20 05:49:22;;;;;;;2.60;2.20;;;17.50;99.90;;;;;;5053955;28;20472;-42
2022/05/20 05:51:49;;;;;;;2.20;1.97;;;17.60;99.90;;;;;;5054025;28;20471;-42
2022/05/20 05:54:17;;;;;;;4.33;2.33;;;17.60;99.90;;;;;;5053870;28;20463;-47
2022/05/20 05:56:45;;;;;;;1.70;1.50;;;17.60;99.90;;;;;;5053826;28;20481;-47
2022/05/20 05:59:12;;;;;;;2.70;2.20;;;17.60;99.90;;;;;;5053808;28;20959;-42
2022/05/20 06:01:39;;;;;;;3.70;2.20;;;17.60;99.90;;;;;;5053610;28;20934;-42
2022/05/20 06:04:05;;;;;;;2.43;1.60;;;17.70;99.90;;;;;;5054592;28;20611;-43
2022/05/20 06:06:34;;;;;;;2.63;1.90;;;18.00;99.90;;;;;;5053615;28;20445;-42
2022/05/20 06:09:01;;;;;;;2.77;1.80;;;18.80;99.90;;;;;;5053282;28;20895;-41
2022/05/20 06:11:29;;;;;;;4.07;2.00;;;19.70;99.90;;;;;;5053445;28;20481;-43
2022/05/20 06:13:56;;;;;;;3.50;1.50;;;20.40;99.90;;;;;;5053687;28;20462;-46
2022/05/20 06:16:23;;;;;;;4.03;1.87;;;20.90;99.90;;;;;;5053592;28;20444;-43
2022/05/20 06:18:50;;;;;;;2.00;1.80;;;21.30;99.90;;;;;;5053147;28;20791;-48
2022/05/20 06:21:17;;;;;;;3.30;2.33;;;21.20;99.90;;;;;;5053313;28;20536;-42
2022/05/20 06:23:45;;;;;;;2.23;1.70;;;21.20;99.90;;;;;;5053365;28;20540;-47
2022/05/20 06:26:12;;;;;;;3.20;2.13;;;21.00;99.90;;;;;;5053310;28;20484;-46
2022/05/20 06:28:39;;;;;;;2.27;2.07;;;21.00;99.90;;;;;;5053098;28;20538;-55
2022/05/20 06:31:06;;;;;;;2.23;1.97;;;21.00;99.90;;;;;;5053316;28;20869;-42
2022/05/20 06:33:34;;;;;;;4.70;2.00;;;21.00;99.90;;;;;;5053012;28;20465;-43
2022/05/20 06:41:30;;;;;;;3.00;2.27;;;20.70;99.90;;;;;;5022256;28;20433;-44
2022/05/20 06:43:58;;;;;;;3.23;1.87;;;20.50;99.90;;;;;;5052825;28;20492;-46
2022/05/20 06:46:25;;;;;;;2.20;1.80;;;20.30;99.90;;;;;;5053103;28;20972;-42
2022/05/20 06:48:54;;;;;;;1.90;1.67;;;20.20;99.90;;;;;;5052800;28;20554;-46
2022/05/20 06:51:23;;;;;;;2.53;2.17;;;19.90;99.90;;;;;;5052849;28;20528;-43
2022/05/20 06:53:52;;;;;;;2.17;1.70;;;19.70;99.90;;;;;;5052692;28;20552;-46
2022/05/20 06:56:20;;;;;;;2.10;1.83;;;19.70;99.90;;;;;;5053342;28;20448;-42
2022/05/20 06:58:47;;;;;;;4.40;2.53;;;19.60;99.90;;;;;;5052820;28;20949;-43
2022/05/20 07:01:15;;;;;;;2.57;2.00;;;19.70;99.90;;;;;;5052623;28;20448;-43
2022/05/20 07:03:42;;;;;;;2.60;2.10;;;19.50;99.90;;;;;;5052562;28;20477;-43
2022/05/20 07:06:11;;;;;;;4.20;2.63;;;19.30;99.90;;;;;;5052601;28;20528;-49
2022/05/20 07:08:38;;;;;;;2.40;2.20;;;19.20;99.90;;;;;;5052865;28;20564;-47
2022/05/20 07:11:07;;;;;;;7.03;2.73;;;19.20;99.90;;;;;;5052382;28;20817;-44
2022/05/20 07:13:34;;;;;;;2.20;2.00;;;19.30;99.90;;;;;;5052283;28;20880;-43
2022/05/20 07:16:01;;;;;;;3.70;1.60;;;19.30;99.90;;;;;;5052419;28;20441;-48
2022/05/20 07:18:29;;;;;;;2.37;2.17;;;19.40;99.90;;;;;;5052568;28;20483;-44
2022/05/20 07:20:56;;;;;;;2.70;2.03;;;19.50;99.90;;;;;;5052310;28;20453;-44
2022/05/20 07:23:25;;;;;;;3.63;2.00;;;19.50;99.90;;;;;;5052533;28;20849;-44
2022/05/20 07:25:52;;;;;;;2.33;2.13;;;19.70;99.90;;;;;;5052276;28;20797;-48
2022/05/20 07:28:20;;;;;;;3.30;2.17;;;19.90;99.90;;;;;;5051713;28;20537;-43
2022/05/20 07:30:47;;;;;;;2.20;1.97;;;20.20;99.90;;;;;;5051998;28;20484;-44
2022/05/20 07:33:14;;;;;;;3.77;2.47;;;20.50;99.90;;;;;;5052095;28;20530;-43
2022/05/20 07:35:41;;;;;;;2.77;1.80;;;20.90;99.90;;;;;;5051816;28;20630;-44
2022/05/20 07:38:09;;;;;;;2.67;2.20;;;21.10;99.90;;;;;;5052270;28;20450;-44
2022/05/20 07:40:36;;;;;;;3.17;2.13;;;21.20;99.90;;;;;;5051980;28;20524;-44
2022/05/20 07:43:03;;;;;;;2.80;1.90;;;21.10;99.90;;;;;;5051908;28;20877;-44
2022/05/20 07:45:31;;;;;;;2.33;2.13;;;21.10;99.90;;;;;;5051890;28;20524;-44
2022/05/20 07:47:58;;;;;;;2.40;2.20;;;21.50;99.90;;;;;;5051883;28;20484;-44
2022/05/20 07:50:25;;;;;;;2.77;2.57;;;21.90;99.90;;;;;;5051406;28;20538;-48
2022/05/20 07:55:42;;;;;;;3.77;2.33;;;22.10;99.90;;;;;;5051978;28;20467;-45
2022/05/20 07:58:12;;;;;;;2.90;2.30;;;22.40;99.90;;;;;;5051808;28;20502;-44
2022/05/20 08:00:41;;;;;;;5.23;3.30;;;22.30;99.90;;;;;;5051140;28;20472;-44
2022/05/20 08:03:09;;;;;;;2.87;2.60;;;22.40;99.90;;;;;;5051405;28;20993;-44
2022/05/20 08:05:35;;;;;;;3.27;2.67;;;22.10;99.90;;;;;;5051501;28;20446;-44
2022/05/20 08:08:04;;;;;;;2.57;2.37;;;22.20;99.90;;;;;;5051637;28;20437;-43
2022/05/20 08:10:34;;;;;;;4.20;2.67;;;22.10;99.90;;;;;;5050901;28;20480;-43
2022/05/20 08:13:01;;;;;;;4.20;2.53;;;22.30;99.90;;;;;;5051514;28;20461;-49
2022/05/20 08:15:29;;;;;;;4.10;3.00;;;22.40;99.90;;;;;;5051354;28;20445;-44
2022/05/20 08:17:58;;;;;;;7.80;4.40;;;22.50;99.90;;;;;;5051425;28;20453;-44
2022/05/20 08:20:28;;;;;;;2.93;2.50;;;22.40;99.90;;;;;;5051360;28;20449;-44
2022/05/20 08:22:56;;;;;;;5.03;3.50;;;22.50;99.90;;;;;;5051095;28;20483;-44
2022/05/20 08:25:25;;;;;;;2.93;2.40;;;22.10;99.90;;;;;;5051605;28;20507;-43
2022/05/20 08:27:52;;;;;;;3.03;2.73;;;22.20;99.90;;;;;;5051375;28;21000;-46
2022/05/20 08:30:23;;;;;;;4.23;3.90;;;22.40;99.90;;;;;;5051180;28;21046;-43
2022/05/20 08:32:50;;;;;;;40.97;16.83;;;22.40;99.90;;;;;;5051079;28;20493;-43
2022/05/20 08:35:20;;;;;;;2.87;2.57;;;22.60;99.90;;;;;;5051522;28;20499;-44
2022/05/20 08:37:48;;;;;;;2.83;2.53;;;22.70;99.90;;;;;;5051309;28;20541;-45
2022/05/20 08:40:21;;;;;;;2.63;2.43;;;22.90;99.90;;;;;;5054413;28;20445;-44
2022/05/20 08:42:50;;;;;;;3.40;3.10;;;22.90;99.90;;;;;;5055547;28;20463;-44
2022/05/20 08:45:21;;;;;;;2.83;2.43;;;23.10;99.90;;;;;;5055235;28;20506;-45
2022/05/20 08:47:49;;;;;;;3.30;2.67;;;23.30;99.90;;;;;;5055115;28;20473;-44
2022/05/20 08:50:21;;;;;;;3.10;2.47;;;23.40;99.90;;;;;;5054919;28;20509;-43
2022/05/20 08:52:50;;;;;;;2.80;2.60;;;23.40;99.90;;;;;;5055209;28;20523;-47
2022/05/20 08:55:17;;;;;;;3.27;2.67;;;23.40;99.90;;;;;;5054978;28;20499;-44
2022/05/20 08:57:50;;;;;;;3.27;2.70;;;23.00;99.90;;;;;;5055351;28;20502;-45
2022/05/20 09:00:19;;;;;;;3.33;2.57;;;22.90;99.90;;;;;;5054592;28;20499;-44
2022/05/20 09:02:46;;;;;;;3.47;3.13;;;22.80;99.90;;;;;;5054752;28;20496;-46
2022/05/20 09:05:22;;;;;;;3.40;2.30;;;23.00;99.90;;;;;;5055197;28;20476;-45
2022/05/20 09:07:58;;;;;;;3.10;2.80;;;23.10;99.90;;;;;;5054985;28;20988;-46
2022/05/20 09:10:38;;;;;;;4.50;2.80;;;23.00;99.90;;;;;;5054373;28;20551;-45
2022/05/20 09:13:14;;;;;;;3.10;2.53;;;22.90;99.90;;;;;;5055188;28;20469;-47
2022/05/20 09:15:44;;;;;;;3.20;2.93;;;22.80;99.90;;;;;;5054631;28;20469;-49
2022/05/20 09:18:32;;;;;;;3.73;2.80;;;22.80;99.90;;;;;;5054820;28;20856;-45
2022/05/20 09:21:00;;;;;;;3.13;2.80;;;22.90;99.90;;;;;;5054382;28;20503;-42
2022/05/20 09:23:28;;;;;;;3.10;2.63;;;22.90;99.90;;;;;;5054328;28;20969;-43
2022/05/20 09:26:03;;;;;;;3.37;3.07;;;23.10;99.90;;;;;;5054678;28;20477;-44
2022/05/20 09:28:37;;;;;;;2.93;2.63;;;23.10;99.90;;;;;;5054593;28;20441;-42
2022/05/20 09:31:17;;;;;;;2.90;2.60;;;23.10;99.90;;;;;;5054354;28;20439;-42
2022/05/20 09:33:51;;;;;;;4.30;2.40;;;23.10;99.90;;;;;;5054216;28;20840;-46
2022/05/20 09:36:38;;;;;;;2.80;2.50;;;23.30;99.90;;;;;;5054506;28;20531;-43
2022/05/20 09:39:11;;;;;;;4.70;2.90;;;23.20;99.90;;;;;;5054681;28;20433;-43
2022/05/20 09:41:47;;;;;;;2.57;2.20;;;23.20;99.90;;;;;;5054496;28;20469;-42
2022/05/20 09:44:15;;;;;;;4.17;2.60;;;23.30;99.90;;;;;;5054428;28;20496;-42
2022/05/20 09:46:51;;;;;;;2.77;2.13;;;23.20;99.90;;;;;;5054134;28;20481;-42
2022/05/20 09:49:23;;;;;;;4.13;2.20;;;23.30;99.90;;;;;;5053593;28;20477;-43
2022/05/20 09:51:55;;;;;;;3.87;2.90;;;23.30;99.90;;;;;;5054126;28;20465;-44
2022/05/20 09:54:26;;;;;;;3.73;2.67;;;23.40;99.90;;;;;;5053973;28;20472;-42
2022/05/20 09:57:05;;;;;;;3.17;2.87;;;23.50;99.90;;;;;;5054320;28;20926;-47
2022/05/20 09:59:47;;;;;;;2.90;2.50;;;23.60;99.90;;;;;;5053862;28;20946;-43
2022/05/20 10:02:23;;;;;;;3.03;2.70;;;23.60;99.90;;;;;;5053577;28;20445;-43
2022/05/20 10:05:14;;;;;;;3.00;2.80;;;23.70;99.90;;;;;;5053860;28;21008;-46
2022/05/20 10:07:54;;;;;;;2.57;2.37;;;23.60;99.90;;;;;;5053767;28;20932;-43
2022/05/20 10:10:37;;;;;;;3.93;2.83;;;23.60;99.90;;;;;;5054098;28;20473;-42
2022/05/20 10:13:08;;;;;;;5.40;2.60;;;23.60;99.90;;;;;;5053859;28;20545;-42
2022/05/20 10:15:41;;;;;;;4.70;2.77;;;23.80;99.90;;;;;;5053877;28;20499;-45
2022/05/20 10:18:16;;;;;;;3.40;2.90;;;23.80;99.90;;;;;;5053664;28;20446;-43
2022/05/20 10:20:51;;;;;;;2.90;2.50;;;23.90;99.90;;;;;;5053214;28;20441;-42
2022/05/20 10:23:28;;;;;;;3.00;2.70;;;24.00;99.90;;;;;;5053594;28;21035;-43
2022/05/20 10:26:05;;;;;;;4.40;2.40;;;24.00;99.90;;;;;;5053588;28;20480;-47
2022/05/20 10:34:15;;;;;;;3.40;2.60;;;24.10;99.90;;;;;;5053342;28;20486;-42
2022/05/20 10:36:55;;;;;;;3.40;2.50;;;24.20;99.90;;;;;;5053347;28;20448;-42
2022/05/20 10:39:40;;;;;;;3.57;2.87;;;24.30;99.90;;;;;;5053107;28;20485;-45
2022/05/20 10:42:26;;;;;;;4.03;3.20;;;24.40;99.90;;;;;;5052962;28;20498;-43
2022/05/20 10:50:59;;;;;;;3.50;2.50;;;24.60;99.90;;;;;;5052702;28;20841;-44
2022/05/20 10:53:34;;;;;;;3.00;2.20;;;24.70;99.90;;;;;;5052954;28;20997;-45
2022/05/20 10:56:17;;;;;;;3.30;2.60;;;24.60;99.90;;;;;;5052611;28;20476;-48
2022/05/20 10:58:58;;;;;;;2.80;2.60;;;24.60;99.90;;;;;;5052599;28;21015;-45
2022/05/20 11:01:37;;;;;;;3.20;2.90;;;24.70;99.90;;;;;;5051693;28;20491;-44
2022/05/20 11:04:32;;;;;;;2.50;2.30;;;24.70;99.90;;;;;;5052444;28;20527;-44
2022/05/20 11:07:24;;;;;;;3.73;2.70;;;24.70;99.90;;;;;;5052898;28;20743;-45
2022/05/20 11:10:04;;;;;;;2.53;2.33;;;24.80;99.90;;;;;;5052446;28;20509;-45
2022/05/20 11:12:45;;;;;;;2.87;2.60;;;24.70;99.90;;;;;;5052560;28;20449;-45
2022/05/20 11:15:31;;;;;;;3.90;2.90;;;24.80;99.90;;;;;;5052648;28;20477;-45
2022/05/20 11:18:21;;;;;;;3.97;2.63;;;24.80;99.90;;;;;;5052595;28;20480;-48
2022/05/20 11:21:15;;;;;;;3.00;2.67;;;24.80;99.90;;;;;;5051964;28;20536;-45
2022/05/20 11:24:11;;;;;;;3.77;3.07;;;24.90;99.90;;;;;;5052354;28;20892;-45
2022/05/20 11:26:51;;;;;;;3.93;2.40;;;25.00;99.90;;;;;;5035666;28;20477;-45
2022/05/20 11:29:56;;;;;;;2.47;2.27;;;25.00;99.90;;;;;;5051857;28;20972;-45
2022/05/20 11:32:37;;;;;;;3.40;3.07;;;25.00;99.90;;;;;;5052354;28;20441;-45
2022/05/20 11:35:25;;;;;;;3.40;3.10;;;25.10;99.90;;;;;;5052134;28;20445;-46
2022/05/20 11:38:15;;;;;;;4.20;2.30;;;25.20;99.90;;;;;;5052135;28;20479;-44
2022/05/20 11:40:58;;;;;;;4.07;2.87;;;25.30;99.90;;;;;;5052079;28;20429;-45
2022/05/20 11:44:10;;;;;;;3.03;2.57;;;25.30;99.90;;;;;;5052002;28;20488;-45
2022/05/20 11:46:51;;;;;;;3.23;2.93;;;25.40;99.90;;;;;;4970516;28;20484;-45
2022/05/20 11:49:32;;;;;;;3.83;2.97;;;25.40;99.90;;;;;;4970450;28;20452;-50
2022/05/20 11:52:34;;;;;;;3.30;3.00;;;25.40;99.90;;;;;;5022417;28;20437;-44
2022/05/20 11:55:07;;;;;;;4.70;2.67;;;25.50;99.90;;;;;;5051647;28;20468;-49
2022/05/20 11:57:39;;;;;;;3.60;3.30;;;25.60;99.90;;;;;;5051773;28;20818;-45
2022/05/20 12:00:09;;;;;;;3.87;3.20;;;25.60;99.90;;;;;;5051391;28;20445;-45
2022/05/20 12:02:50;;;;;;;3.27;2.97;;;25.60;99.90;;;;;;5051674;28;21067;-50
2022/05/20 12:05:20;;;;;;;2.73;2.53;;;25.70;99.90;;;;;;5051833;28;20467;-45
2022/05/20 12:07:47;;;;;;;3.60;2.90;;;25.80;99.90;;;;;;5051976;28;20449;-45
2022/05/20 12:10:34;;;;;;;2.90;2.70;;;25.90;99.90;;;;;;5050924;28;20568;-47
2022/05/20 12:13:11;;;;;;;3.70;2.83;;;25.90;99.90;;;;;;5050429;28;20493;-44
2022/05/20 12:15:41;;;;;;;10.30;3.43;;;26.00;99.90;;;;;;5051385;28;20492;-46
2022/05/20 12:24:35;;;;;;;3.20;2.50;;;26.20;98.20;;;;;;5051311;28;20956;-47
2022/05/20 12:27:03;;;;;;;4.63;3.03;;;26.40;99.90;;;;;;5051581;28;20520;-45
2022/05/20 12:30:00;;;;;;;3.00;2.70;;;26.50;99.90;;;;;;5051088;28;20527;-45
2022/05/20 12:32:44;;;;;;;2.87;2.57;;;26.60;99.90;;;;;;5051282;28;20452;-45
2022/05/20 12:35:16;;;;;;;2.57;2.37;;;26.60;98.70;;;;;;5047922;28;20488;-44
2022/05/20 12:37:56;;;;;;;2.80;2.50;;;26.70;99.90;;;;;;5051057;28;20477;-48
2022/05/20 12:40:56;;;;;;;6.50;2.80;;;26.80;99.90;;;;;;5051173;28;20438;-44
2022/05/20 12:43:46;;;;;;;4.87;3.00;;;26.70;99.90;;;;;;5051140;28;20465;-45
2022/05/20 12:46:22;;;;;;;4.53;3.13;;;26.70;99.90;;;;;;5050947;28;20451;-44
2022/05/20 12:48:56;;;;;;;3.90;3.37;;;26.80;99.80;;;;;;5050958;28;20436;-45
2022/05/20 12:51:24;;;;;;;3.33;3.03;;;26.90;99.90;;;;;;5050775;28;20566;-45
2022/05/20 12:53:51;;;;;;;5.17;3.57;;;26.90;97.80;;;;;;5050580;28;20492;-45
2022/05/20 12:56:30;;;;;;;3.17;2.87;;;27.00;97.80;;;;;;5050758;28;20476;-44
2022/05/20 12:59:13;;;;;;;3.30;3.00;;;27.00;98.30;;;;;;5050383;28;20440;-45
2022/05/20 13:01:46;;;;;;;5.27;2.97;;;26.90;97.80;;;;;;5050380;28;20447;-45
2022/05/20 13:04:15;;;;;;;4.87;3.33;;;26.90;97.80;;;;;;5050862;28;20477;-47
2022/05/20 13:06:47;;;;;;;3.47;2.90;;;26.80;96.00;;;;;;5051212;28;20469;-45
2022/05/20 13:09:23;;;;;;;3.57;3.00;;;26.70;95.70;;;;;;5050699;28;20503;-45
2022/05/20 13:11:51;;;;;;;3.60;2.87;;;26.70;98.20;;;;;;5051070;28;20535;-45
2022/05/20 13:14:22;;;;;;;5.13;3.23;;;26.70;97.90;;;;;;5050955;28;20467;-47
2022/05/20 13:16:51;;;;;;;3.23;2.87;;;26.70;98.10;;;;;;5050768;28;20451;-45
2022/05/20 13:19:29;;;;;;;2.90;2.70;;;26.60;97.10;;;;;;5050836;28;20476;-44
2022/05/20 13:22:04;;;;;;;4.00;2.90;;;26.60;96.30;;;;;;5050761;28;20433;-48
2022/05/20 13:24:36;;;;;;;3.30;3.00;;;26.50;96.50;;;;;;5050801;28;20471;-45
2022/05/20 13:27:16;;;;;;;5.30;3.20;;;26.50;97.70;;;;;;5054857;28;20440;-45
2022/05/20 13:29:44;;;;;;;5.93;3.70;;;26.50;98.90;;;;;;5054912;28;20503;-49
2022/05/20 13:32:17;;;;;;;4.03;3.30;;;26.50;99.00;;;;;;5054366;28;20472;-50
2022/05/20 13:34:46;;;;;;;8.30;3.50;;;26.50;98.20;;;;;;5054511;28;20511;-45
2022/05/20 13:37:20;;;;;;;3.83;3.40;;;26.40;98.60;;;;;;5054059;28;20487;-46
2022/05/20 13:39:47;;;;;;;4.90;3.50;;;26.40;99.90;;;;;;5054120;28;20484;-44
2022/05/20 13:42:17;;;;;;;4.87;3.67;;;26.40;99.90;;;;;;5054073;28;20477;-47
2022/05/20 13:44:45;;;;;;;4.77;3.60;;;26.30;99.90;;;;;;5054262;28;20499;-44
2022/05/20 13:50:01;;;;;;;4.90;3.47;;;26.00;99.90;;;;;;5053733;28;20420;-46